Time;durP1;ratioP1;P1;durP2;ratioP2;P2;SDS_P1;SDS_P2;PMS_P1;PMS_P2;Temp;Humidity;BMP_temperature;BMP_pressure;BME280_temperature;BME280_humidity;BME280_pressure;Samples;Min_cycle;Max_cycle;Signal;HPM_P1;HPM_P2
2022/06/12 00:00:59;;;;;;;3.03;1.98;;;17.20;95.30;;;;;;6216826;28;20054;-79
2022/06/12 00:04:01;;;;;;;3.33;1.42;;;17.10;95.30;;;;;;6219557;28;20496;-80
2022/06/12 00:07:03;;;;;;;2.70;1.73;;;17.10;95.40;;;;;;6228006;28;20444;-82
2022/06/12 00:10:06;;;;;;;3.55;1.60;;;17.00;95.50;;;;;;6231835;28;20440;-81
2022/06/12 00:13:09;;;;;;;4.05;2.88;;;17.00;95.50;;;;;;6226827;28;20053;-82
2022/06/12 00:16:14;;;;;;;2.15;1.60;;;17.00;95.40;;;;;;6226145;28;20057;-87
2022/06/12 00:19:16;;;;;;;3.08;1.73;;;17.00;95.40;;;;;;6223658;28;20050;-86
2022/06/12 00:22:18;;;;;;;3.17;1.88;;;16.90;95.30;;;;;;6199773;28;20050;-86
2022/06/12 00:25:21;;;;;;;4.22;2.47;;;16.90;95.40;;;;;;6223924;28;20501;-84
2022/06/12 00:31:43;;;;;;;3.50;2.13;;;16.80;95.30;;;;;;6225889;28;20464;-84
2022/06/12 00:34:47;;;;;;;4.55;1.95;;;16.80;95.40;;;;;;6226209;28;20064;-84
2022/06/12 00:37:49;;;;;;;6.07;1.67;;;16.80;95.40;;;;;;6226079;28;20045;-85
2022/06/12 00:40:50;;;;;;;3.83;1.83;;;16.80;95.40;;;;;;6225464;28;20050;-86
2022/06/12 00:43:53;;;;;;;4.05;1.63;;;16.80;95.50;;;;;;6225729;28;20114;-85
2022/06/12 00:46:58;;;;;;;2.72;1.88;;;16.80;95.50;;;;;;6225758;28;20061;-84
2022/06/12 00:50:04;;;;;;;4.93;1.50;;;16.80;95.50;;;;;;6225073;28;20052;-84
2022/06/12 00:53:07;;;;;;;2.20;1.73;;;16.80;95.50;;;;;;6225071;28;20497;-86
2022/06/12 00:56:15;;;;;;;5.70;2.00;;;16.80;95.70;;;;;;6225250;28;20042;-86
2022/06/12 00:59:20;;;;;;;3.10;1.58;;;16.70;95.70;;;;;;6225099;28;20060;-84
2022/06/12 01:02:26;;;;;;;3.17;2.08;;;16.70;95.80;;;;;;6225148;28;20046;-85
2022/06/12 01:08:48;;;;;;;7.90;2.15;;;16.60;96.00;;;;;;6200313;28;20042;-84
2022/06/12 01:11:51;;;;;;;7.97;1.90;;;16.50;96.20;;;;;;6200812;28;20046;-84
2022/06/12 01:14:58;;;;;;;4.25;2.10;;;16.50;96.20;;;;;;6201093;28;20060;-84
2022/06/12 01:18:02;;;;;;;5.45;2.83;;;16.40;96.30;;;;;;6200313;28;20057;-85
2022/06/12 01:21:17;;;;;;;2.78;1.70;;;16.40;96.40;;;;;;6200418;28;20049;-85
2022/06/12 01:24:38;;;;;;;5.03;2.40;;;16.30;96.50;;;;;;6200058;28;20046;-85
2022/06/12 01:28:04;;;;;;;4.72;2.15;;;16.30;96.40;;;;;;6201210;28;20062;-85
2022/06/12 01:31:17;;;;;;;2.17;1.90;;;16.20;96.40;;;;;;6200964;28;20057;-85
2022/06/12 01:34:30;;;;;;;3.92;2.10;;;16.20;96.50;;;;;;6199565;28;20061;-85
2022/06/12 01:37:46;;;;;;;2.30;1.60;;;16.10;96.50;;;;;;6199789;28;20053;-85
2022/06/12 01:40:57;;;;;;;3.05;2.20;;;16.10;96.60;;;;;;6199785;28;20426;-85
2022/06/12 01:44:10;;;;;;;4.30;1.85;;;16.00;96.60;;;;;;6200424;28;20054;-84
2022/06/12 01:47:23;;;;;;;2.35;1.88;;;16.00;96.90;;;;;;6199302;28;20478;-85
2022/06/12 01:50:34;;;;;;;2.75;1.80;;;16.00;96.60;;;;;;6199641;28;20108;-83
2022/06/12 01:53:42;;;;;;;2.45;2.00;;;16.00;96.60;;;;;;6200021;28;20054;-84
2022/06/12 01:56:51;;;;;;;4.05;2.40;;;16.00;96.70;;;;;;6199845;28;20154;-84
2022/06/12 01:59:56;;;;;;;5.68;2.00;;;15.90;96.70;;;;;;6199799;28;20050;-85
2022/06/12 02:03:05;;;;;;;2.45;1.58;;;15.80;96.70;;;;;;6199904;28;20046;-86
2022/06/12 02:06:17;;;;;;;2.47;1.92;;;15.80;96.80;;;;;;6207110;28;20034;-85
2022/06/12 02:09:25;;;;;;;4.13;1.90;;;15.80;96.90;;;;;;6223153;28;20054;-85
2022/06/12 02:15:57;;;;;;;1.90;1.48;;;15.70;97.00;;;;;;6224350;28;20041;-85
2022/06/12 02:19:09;;;;;;;6.57;2.45;;;15.60;97.00;;;;;;6224584;28;20092;-86
2022/06/12 02:22:16;;;;;;;3.55;2.10;;;15.70;97.30;;;;;;6222513;28;20076;-85
2022/06/12 02:25:22;;;;;;;3.08;2.00;;;15.70;97.00;;;;;;6224026;28;20129;-84
2022/06/12 02:28:27;;;;;;;3.13;1.90;;;15.60;97.00;;;;;;6224554;28;20049;-85
2022/06/12 02:31:34;;;;;;;4.88;2.05;;;15.60;97.10;;;;;;6225189;28;20058;-83
2022/06/12 02:34:42;;;;;;;3.47;2.50;;;15.60;97.30;;;;;;6224138;28;20054;-84
2022/06/12 02:37:49;;;;;;;2.45;2.20;;;15.60;97.20;;;;;;6223944;28;20053;-85
2022/06/12 02:40:58;;;;;;;4.55;2.20;;;15.40;97.00;;;;;;6226334;28;20061;-85
2022/06/12 02:44:08;;;;;;;3.80;2.08;;;15.40;97.10;;;;;;6228032;28;20050;-84
2022/06/12 02:47:13;;;;;;;3.20;1.95;;;15.40;97.10;;;;;;6229274;28;20068;-83
2022/06/12 02:50:21;;;;;;;2.05;1.42;;;15.40;97.40;;;;;;6229001;28;20517;-85
2022/06/12 02:53:33;;;;;;;5.60;1.90;;;15.50;97.60;;;;;;6228542;28;20048;-84
2022/06/12 02:56:45;;;;;;;2.55;1.80;;;15.50;97.30;;;;;;6227816;28;20050;-85
2022/06/12 03:00:04;;;;;;;8.85;1.90;;;15.60;97.30;;;;;;6220905;28;20612;-85
2022/06/12 03:03:17;;;;;;;2.33;1.65;;;15.80;97.10;;;;;;6228720;28;20085;-84
2022/06/12 03:06:27;;;;;;;3.03;1.63;;;15.60;96.90;;;;;;6228999;28;20129;-85
2022/06/12 03:09:29;;;;;;;3.92;2.33;;;15.60;96.80;;;;;;6213286;28;20049;-85
2022/06/12 03:12:32;;;;;;;1.83;1.33;;;15.70;96.80;;;;;;6204276;28;20134;-85
2022/06/12 03:15:39;;;;;;;6.95;1.98;;;15.80;96.60;;;;;;6207590;28;20204;-85
2022/06/12 03:18:44;;;;;;;3.05;2.00;;;15.80;96.30;;;;;;6226634;28;20054;-84
2022/06/12 03:21:54;;;;;;;3.78;2.10;;;15.80;96.20;;;;;;6224718;28;20050;-85
2022/06/12 03:25:08;;;;;;;2.05;1.60;;;15.80;96.40;;;;;;6225587;28;20080;-86
2022/06/12 03:28:16;;;;;;;2.55;1.58;;;15.80;96.20;;;;;;6226459;28;20517;-87
2022/06/12 03:31:54;;;;;;;2.65;1.70;;;15.80;96.20;;;;;;6227478;28;20062;-88
2022/06/12 03:47:22;;;;;;;3.95;2.10;;;15.80;96.20;;;;;;6018102;29;20060;-87
2022/06/12 03:50:32;;;;;;;4.22;1.63;;;15.90;96.10;;;;;;6079494;28;20055;-87
2022/06/12 03:53:41;;;;;;;3.05;1.52;;;15.90;96.00;;;;;;6227041;28;20104;-87
2022/06/12 04:00:13;;;;;;;3.35;1.98;;;16.00;95.90;;;;;;6238613;28;20038;-87
2022/06/12 04:03:19;;;;;;;3.90;1.75;;;16.00;95.80;;;;;;6240513;28;20069;-87
2022/06/12 04:06:25;;;;;;;2.05;1.50;;;16.00;95.90;;;;;;6236029;28;20456;-89
2022/06/12 04:09:30;;;;;;;3.95;1.88;;;16.00;95.90;;;;;;6235459;28;20111;-87
2022/06/12 04:12:35;;;;;;;4.80;2.50;;;16.20;95.70;;;;;;6234917;28;20049;-86
2022/06/12 04:15:41;;;;;;;2.92;1.80;;;16.40;95.60;;;;;;6237040;28;20433;-85
2022/06/12 04:18:45;;;;;;;3.28;1.80;;;17.10;94.90;;;;;;6237313;28;20129;-86
2022/06/12 04:21:52;;;;;;;2.42;1.80;;;18.00;93.60;;;;;;6235449;28;20067;-87
2022/06/12 04:24:59;;;;;;;2.97;1.48;;;18.30;92.30;;;;;;6237752;28;20050;-87
2022/06/12 04:28:02;;;;;;;3.60;1.60;;;18.30;92.30;;;;;;6236539;28;20058;-85
2022/06/12 04:31:07;;;;;;;2.97;1.75;;;18.40;92.00;;;;;;6236669;28;20133;-88
2022/06/12 04:34:15;;;;;;;3.20;1.60;;;18.50;92.00;;;;;;6236371;28;20404;-87
2022/06/12 04:37:21;;;;;;;3.60;1.75;;;19.30;91.60;;;;;;6234506;28;20056;-88
2022/06/12 04:40:27;;;;;;;1.40;1.15;;;21.10;88.00;;;;;;6236458;28;20038;-89
2022/06/12 04:43:29;;;;;;;4.63;2.83;;;23.00;81.90;;;;;;6233392;28;20149;-88
2022/06/12 04:46:32;;;;;;;3.03;1.23;;;24.80;76.10;;;;;;6234351;28;20041;-87
2022/06/12 04:49:37;;;;;;;2.63;1.20;;;26.10;70.50;;;;;;6228372;28;20042;-87
2022/06/12 04:52:39;;;;;;;1.10;0.82;;;27.20;65.60;;;;;;6226813;28;20208;-87
2022/06/12 04:55:41;;;;;;;3.08;1.23;;;28.30;61.50;;;;;;6227580;28;20054;-86
2022/06/12 04:58:44;;;;;;;2.58;1.00;;;29.10;57.80;;;;;;6227982;28;20137;-87
2022/06/12 05:01:47;;;;;;;1.05;0.73;;;29.90;55.50;;;;;;6227869;28;20171;-86
2022/06/12 05:04:51;;;;;;;3.42;1.15;;;30.60;53.00;;;;;;6227941;28;20092;-86
2022/06/12 05:07:53;;;;;;;2.42;1.00;;;31.50;50.90;;;;;;6226888;28;20053;-87
2022/06/12 05:10:55;;;;;;;2.55;1.35;;;32.20;48.50;;;;;;6227476;28;20060;-86
2022/06/12 05:13:57;;;;;;;1.45;0.70;;;32.90;46.80;;;;;;6225864;28;20178;-87
2022/06/12 05:17:01;;;;;;;2.00;1.00;;;33.80;45.10;;;;;;6224898;28;20122;-87
2022/06/12 05:20:06;;;;;;;1.65;1.05;;;35.00;42.90;;;;;;6224641;28;20125;-87
2022/06/12 05:23:09;;;;;;;3.33;1.33;;;36.30;40.50;;;;;;6224921;28;20140;-86
2022/06/12 05:26:14;;;;;;;4.57;0.98;;;37.10;38.90;;;;;;6223550;28;20050;-87
2022/06/12 05:29:20;;;;;;;2.30;0.85;;;37.20;38.30;;;;;;6223572;28;20037;-87
2022/06/12 05:32:23;;;;;;;1.65;0.98;;;37.10;38.30;;;;;;6224554;28;20074;-86
2022/06/12 05:35:28;;;;;;;2.80;1.10;;;36.90;38.30;;;;;;6224566;28;20139;-88
2022/06/12 05:38:30;;;;;;;2.95;1.13;;;37.10;37.80;;;;;;6225025;28;20108;-85
2022/06/12 05:41:32;;;;;;;4.10;1.05;;;37.50;37.10;;;;;;6224279;28;20049;-86
2022/06/12 05:44:35;;;;;;;1.02;0.80;;;38.40;36.30;;;;;;6225356;28;20153;-85
2022/06/12 05:47:43;;;;;;;1.42;0.73;;;39.40;35.50;;;;;;6225989;28;20128;-87
2022/06/12 05:50:50;;;;;;;2.13;1.13;;;40.30;34.40;;;;;;6223745;28;20409;-88
2022/06/12 05:53:52;;;;;;;2.65;1.30;;;41.10;33.20;;;;;;6223734;28;20053;-85
2022/06/12 05:56:54;;;;;;;3.03;0.90;;;41.90;33.30;;;;;;6222760;28;20557;-85
2022/06/12 05:59:57;;;;;;;2.97;1.20;;;42.50;31.70;;;;;;6222578;28;20049;-85
2022/06/12 06:03:00;;;;;;;1.60;0.80;;;42.90;30.90;;;;;;6222970;28;20493;-85
2022/06/12 06:06:05;;;;;;;2.33;1.33;;;43.50;30.30;;;;;;6222702;28;20424;-85
2022/06/12 06:09:08;;;;;;;3.40;1.60;;;43.90;29.90;;;;;;6222665;28;20042;-85
2022/06/12 06:12:10;;;;;;;5.45;1.77;;;44.30;29.60;;;;;;6222708;28;20073;-85
2022/06/12 06:15:13;;;;;;;7.45;2.10;;;44.80;29.30;;;;;;6222621;28;20105;-85
2022/06/12 06:18:15;;;;;;;4.55;1.23;;;45.20;29.00;;;;;;6220839;28;20042;-85
2022/06/12 06:21:18;;;;;;;3.88;1.50;;;45.30;29.00;;;;;;6222786;28;20052;-85
2022/06/12 06:24:20;;;;;;;4.72;1.30;;;45.00;28.70;;;;;;6222814;28;20541;-85
2022/06/12 06:27:22;;;;;;;4.82;1.63;;;44.70;28.90;;;;;;6222491;28;20587;-86
2022/06/12 06:30:26;;;;;;;3.63;1.83;;;45.00;28.90;;;;;;6222411;28;20081;-86
2022/06/12 06:33:28;;;;;;;3.65;1.13;;;45.00;28.80;;;;;;6222820;28;20062;-85
2022/06/12 06:36:35;;;;;;;4.00;1.30;;;45.20;28.80;;;;;;6222787;28;20545;-84
2022/06/12 06:40:35;;;;;;;5.07;1.60;;;45.10;28.80;;;;;;6216020;28;20116;-84
2022/06/12 06:47:07;;;;;;;3.13;1.17;;;38.70;33.80;;;;;;6227931;28;20413;-86
2022/06/12 06:50:13;;;;;;;2.33;1.30;;;36.10;37.10;;;;;;6230824;28;20052;-86
2022/06/12 06:53:24;;;;;;;5.10;1.45;;;34.30;39.50;;;;;;6230707;28;20537;-86
2022/06/12 06:56:35;;;;;;;5.10;1.73;;;32.90;41.40;;;;;;6210934;28;20045;-84
2022/06/12 06:59:37;;;;;;;6.07;1.90;;;32.00;43.00;;;;;;6212443;28;20133;-83
2022/06/12 07:02:39;;;;;;;4.65;1.80;;;31.40;44.50;;;;;;6229401;28;20133;-84
2022/06/12 07:05:42;;;;;;;4.20;1.58;;;30.80;45.60;;;;;;6206285;28;20533;-84
2022/06/12 07:08:45;;;;;;;6.57;2.08;;;30.50;46.90;;;;;;6208625;28;20433;-87
2022/06/12 07:11:47;;;;;;;3.55;1.38;;;30.20;47.80;;;;;;6210232;28;20053;-84
2022/06/12 07:14:52;;;;;;;4.93;1.77;;;29.90;49.00;;;;;;6211722;28;20397;-86
2022/06/12 07:17:56;;;;;;;6.30;2.63;;;29.80;49.40;;;;;;6209095;28;20057;-86
2022/06/12 07:21:23;;;;;;;5.65;1.80;;;29.60;49.40;;;;;;6207880;28;20110;-83
2022/06/12 07:24:37;;;;;;;3.25;1.77;;;29.10;50.00;;;;;;6156589;28;20046;-86
2022/06/12 07:27:59;;;;;;;5.97;1.92;;;28.70;51.60;;;;;;6224211;28;20056;-85
2022/06/12 07:31:09;;;;;;;3.22;1.85;;;28.50;52.30;;;;;;6233717;28;20113;-84
2022/06/12 07:34:12;;;;;;;4.53;2.28;;;28.50;52.60;;;;;;6241096;28;20054;-84
2022/06/12 07:37:14;;;;;;;5.07;1.83;;;28.50;52.70;;;;;;6240087;28;20054;-85
2022/06/12 07:41:01;;;;;;;2.65;1.40;;;28.50;53.20;;;;;;6243522;28;20113;-85
2022/06/12 07:44:08;;;;;;;2.78;1.50;;;28.60;52.70;;;;;;6241887;28;20088;-84
2022/06/12 07:47:10;;;;;;;3.30;1.00;;;28.60;53.30;;;;;;6244567;28;20118;-86
2022/06/12 07:50:21;;;;;;;9.55;1.65;;;28.70;52.90;;;;;;6232854;28;20060;-85
2022/06/12 07:58:24;;;;;;;;;;;;;;;;;;;;;
2022/06/12 08:02:06;;;;;;;5.40;1.40;;;29.10;52.30;;;;;;6238039;28;20108;-82
2022/06/12 08:05:11;;;;;;;4.55;1.40;;;29.30;52.00;;;;;;6228383;28;20057;-85
2022/06/12 08:08:13;;;;;;;3.90;1.63;;;29.50;51.80;;;;;;6232328;28;20100;-83
2022/06/12 08:11:15;;;;;;;3.30;1.70;;;29.80;51.00;;;;;;6241029;28;20050;-83
2022/06/12 08:14:22;;;;;;;2.58;1.23;;;29.80;50.70;;;;;;6238717;28;20085;-83
2022/06/12 08:17:33;;;;;;;6.60;1.25;;;29.70;51.20;;;;;;6234678;28;20050;-84
2022/06/12 08:20:45;;;;;;;4.03;1.30;;;29.80;51.30;;;;;;6235617;28;20045;-83
2022/06/12 08:23:51;;;;;;;2.38;1.10;;;30.00;50.60;;;;;;6235476;28;20046;-86
2022/06/12 08:26:52;;;;;;;3.90;0.93;;;30.30;49.70;;;;;;6220161;28;20118;-86
2022/06/12 08:30:09;;;;;;;3.75;1.00;;;30.60;49.10;;;;;;6232630;28;20049;-85
2022/06/12 08:33:18;;;;;;;2.88;1.20;;;30.90;48.90;;;;;;6233657;28;20060;-86
2022/06/12 08:36:22;;;;;;;2.70;1.02;;;31.20;48.20;;;;;;6232525;28;20052;-85
2022/06/12 08:39:28;;;;;;;1.98;0.88;;;31.30;47.40;;;;;;6233150;28;20135;-85
2022/06/12 09:00:18;;;;;;;3.35;1.27;;;32.00;46.50;;;;;;6159714;28;20499;-87
2022/06/12 09:03:22;;;;;;;3.35;1.13;;;32.20;45.60;;;;;;6172449;28;20053;-84
2022/06/12 09:06:41;;;;;;;1.77;1.05;;;32.20;45.40;;;;;;6180841;28;20446;-83
2022/06/12 09:09:51;;;;;;;3.45;1.40;;;32.30;45.20;;;;;;6180175;28;20122;-84
2022/06/12 09:12:57;;;;;;;1.92;0.70;;;32.50;44.90;;;;;;6178147;28;20437;-85
2022/06/12 09:16:06;;;;;;;1.73;0.60;;;32.70;44.00;;;;;;6184999;28;20510;-84
2022/06/12 09:19:16;;;;;;;5.20;1.08;;;32.80;43.60;;;;;;6187948;28;20063;-85
2022/06/12 09:22:26;;;;;;;1.83;0.98;;;32.90;44.10;;;;;;6181753;28;20051;-83
2022/06/12 09:25:40;;;;;;;4.03;1.10;;;33.00;44.00;;;;;;6176671;28;20066;-89
2022/06/12 09:28:48;;;;;;;2.03;0.93;;;33.20;44.10;;;;;;6176558;28;20070;-83
2022/06/12 09:31:57;;;;;;;3.53;0.75;;;33.20;43.40;;;;;;6179367;28;20049;-85
2022/06/12 09:35:09;;;;;;;4.57;1.10;;;33.20;43.60;;;;;;6181499;28;20057;-85
2022/06/12 09:38:26;;;;;;;1.92;0.90;;;33.40;42.90;;;;;;6182584;28;20047;-83
2022/06/12 09:45:26;;;;;;;2.40;1.08;;;33.40;42.20;;;;;;6177161;28;20046;-83
2022/06/12 09:49:10;;;;;;;1.75;0.73;;;33.10;42.30;;;;;;6176161;28;20058;-86
2022/06/12 09:52:43;;;;;;;3.13;1.20;;;32.90;42.70;;;;;;6176050;28;20043;-88
2022/06/12 09:56:11;;;;;;;1.10;0.50;;;33.20;42.40;;;;;;6175679;28;20042;-83
2022/06/12 10:02:38;;;;;;;1.85;0.70;;;33.80;41.20;;;;;;6168431;28;20058;-84
2022/06/12 10:05:45;;;;;;;2.13;1.20;;;34.00;41.30;;;;;;6177671;28;20055;-85
2022/06/12 10:08:50;;;;;;;1.45;0.60;;;34.20;41.80;;;;;;6177710;28;20452;-84
2022/06/12 10:11:58;;;;;;;1.70;0.80;;;35.00;40.70;;;;;;6177116;28;20039;-87
2022/06/12 10:15:02;;;;;;;;;;;36.30;39.30;;;;;;6177174;28;20674;-84
2022/06/12 10:18:11;;;;;;;1.52;0.60;;;37.00;37.60;;;;;;6176335;28;19929;-86
2022/06/12 10:21:21;;;;;;;4.53;0.73;;;37.10;36.90;;;;;;6176637;28;20043;-85
2022/06/12 10:24:23;;;;;;;2.50;0.80;;;36.70;37.20;;;;;;6176108;28;20049;-83
2022/06/12 10:27:25;;;;;;;3.45;1.02;;;36.40;37.60;;;;;;6168941;28;20057;-84
2022/06/12 10:30:36;;;;;;;3.58;0.68;;;36.00;37.60;;;;;;6177083;28;20062;-84
2022/06/12 10:33:47;;;;;;;1.20;0.60;;;35.70;38.10;;;;;;6175036;28;20046;-86
2022/06/12 10:36:50;;;;;;;3.92;1.02;;;35.50;37.90;;;;;;6175661;28;20050;-84
2022/06/12 10:40:07;;;;;;;7.00;0.90;;;35.40;37.90;;;;;;6176081;28;20050;-85
2022/06/12 10:43:23;;;;;;;2.30;0.73;;;35.40;38.20;;;;;;6176860;28;20054;-85
2022/06/12 10:46:27;;;;;;;2.38;0.90;;;35.40;38.00;;;;;;6176076;28;20047;-84
2022/06/12 10:49:30;;;;;;;1.48;0.70;;;35.50;38.10;;;;;;6175385;28;20142;-83
2022/06/12 10:52:34;;;;;;;0.80;0.47;;;35.50;37.40;;;;;;6176680;28;20474;-83
2022/06/12 10:55:48;;;;;;;3.13;0.65;;;35.70;37.20;;;;;;6162487;28;20053;-85
2022/06/12 10:59:10;;;;;;;2.05;0.70;;;35.80;36.50;;;;;;6175606;28;20062;-85
2022/06/12 11:02:40;;;;;;;3.28;0.98;;;35.90;36.20;;;;;;6179625;28;20137;-85
2022/06/12 11:05:55;;;;;;;3.15;0.80;;;36.10;35.70;;;;;;6178470;28;20057;-83
2022/06/12 11:09:14;;;;;;;3.35;0.52;;;36.30;35.30;;;;;;6180349;28;20054;-84
2022/06/12 11:12:47;;;;;;;4.72;0.40;;;36.30;35.40;;;;;;6157355;28;20045;-86
2022/06/12 11:16:06;;;;;;;6.20;0.88;;;36.40;35.10;;;;;;6156466;28;20054;-85
2022/06/12 11:19:26;;;;;;;2.83;1.33;;;36.50;35.20;;;;;;6160327;29;20062;-85
2022/06/12 11:22:37;;;;;;;3.28;0.90;;;36.80;35.00;;;;;;6159062;29;20125;-82
2022/06/12 11:26:02;;;;;;;3.60;0.80;;;37.10;35.00;;;;;;6176899;28;20427;-85
2022/06/12 11:29:20;;;;;;;3.60;1.13;;;37.20;34.80;;;;;;6182588;28;20050;-84
2022/06/12 11:32:31;;;;;;;3.65;0.70;;;37.40;34.70;;;;;;6183172;28;20125;-84
2022/06/12 11:35:43;;;;;;;1.90;0.45;;;37.70;34.30;;;;;;6181521;28;20063;-85
2022/06/12 11:39:06;;;;;;;5.65;0.93;;;37.80;34.30;;;;;;6180741;28;20054;-85
2022/06/12 11:42:28;;;;;;;2.80;1.20;;;37.70;34.40;;;;;;6181792;28;20047;-84
2022/06/12 11:45:41;;;;;;;4.93;1.20;;;38.00;34.10;;;;;;6178725;28;20415;-83
2022/06/12 11:49:03;;;;;;;2.58;0.60;;;38.30;33.60;;;;;;6156926;28;20074;-85
2022/06/12 11:52:20;;;;;;;2.90;0.70;;;38.30;32.30;;;;;;6157768;28;20039;-85
2022/06/12 11:55:29;;;;;;;2.10;0.57;;;38.10;33.30;;;;;;6165771;28;20058;-84
2022/06/12 11:58:46;;;;;;;2.17;0.50;;;38.00;32.90;;;;;;6181181;28;20044;-84
2022/06/12 12:01:57;;;;;;;10.82;1.20;;;37.70;32.90;;;;;;6181377;28;20057;-84
2022/06/12 12:05:27;;;;;;;3.38;0.95;;;37.60;34.90;;;;;;6179584;28;20078;-85
2022/06/12 12:08:45;;;;;;;2.30;1.13;;;37.60;34.50;;;;;;6175717;28;20055;-85
2022/06/12 12:11:49;;;;;;;1.00;0.40;;;37.60;34.10;;;;;;6181291;28;20046;-84
2022/06/12 12:14:54;;;;;;;2.67;0.73;;;37.60;33.80;;;;;;6181260;28;20046;-82
2022/06/12 12:17:58;;;;;;;0.45;0.22;;;37.30;33.20;;;;;;6183857;28;20047;-83
2022/06/12 12:21:02;;;;;;;0.95;0.55;;;37.30;33.20;;;;;;6179690;28;20050;-84
2022/06/12 12:24:08;;;;;;;5.28;0.95;;;37.20;34.00;;;;;;6180150;28;20121;-83
2022/06/12 12:27:18;;;;;;;3.38;0.60;;;37.00;33.80;;;;;;6172900;28;20057;-83
2022/06/12 12:30:24;;;;;;;2.47;0.40;;;36.60;34.30;;;;;;6155195;28;20054;-83
2022/06/12 12:33:28;;;;;;;0.70;0.47;;;36.40;34.60;;;;;;6157190;28;20047;-83
2022/06/12 12:43:16;;;;;;;1.50;0.70;;;36.20;34.50;;;;;;6186571;28;20046;-82
2022/06/12 12:46:22;;;;;;;2.28;0.47;;;35.90;35.10;;;;;;6183114;28;20047;-81
2022/06/12 12:49:35;;;;;;;2.13;0.45;;;35.70;35.30;;;;;;6185943;28;20418;-82
2022/06/12 12:52:50;;;;;;;2.78;0.65;;;35.50;35.40;;;;;;6187028;28;20069;-84
2022/06/12 12:56:02;;;;;;;1.13;0.60;;;35.30;35.40;;;;;;6182349;28;20557;-82
2022/06/12 13:03:29;;;;;;;3.30;0.50;;;35.20;34.80;;;;;;6083484;29;20057;-83
2022/06/12 13:06:58;;;;;;;1.30;0.50;;;35.30;35.10;;;;;;6084839;29;20096;-83
2022/06/12 13:10:33;;;;;;;19.20;2.78;;;35.80;34.80;;;;;;6114497;28;20053;-82
2022/06/12 13:14:21;;;;;;;4.72;0.60;;;36.40;33.40;;;;;;6182260;28;20078;-83
2022/06/12 13:17:41;;;;;;;11.83;0.80;;;36.40;33.60;;;;;;6182372;28;20061;-82
2022/06/12 13:25:09;;;;;;;1.77;0.80;;;36.50;33.90;;;;;;6182790;28;20138;-84
2022/06/12 13:28:29;;;;;;;1.42;0.45;;;36.30;34.20;;;;;;6173117;28;20269;-83
2022/06/12 13:39:28;;;;;;;2.95;0.75;;;36.10;34.20;;;;;;6169727;28;20046;-83
2022/06/12 13:42:31;;;;;;;1.75;0.50;;;36.10;34.60;;;;;;6181467;28;20158;-85
2022/06/12 13:46:28;;;;;;;0.40;0.30;;;36.20;34.60;;;;;;6177000;28;20054;-85
2022/06/12 13:53:17;;;;;;;1.55;0.65;;;36.00;34.20;;;;;;6147404;28;20046;-84
2022/06/12 13:56:20;;;;;;;2.33;0.47;;;36.20;34.20;;;;;;6176667;28;20066;-85
2022/06/12 13:59:39;;;;;;;1.38;0.47;;;36.20;33.80;;;;;;6177038;28;20055;-85
2022/06/12 14:02:42;;;;;;;2.85;0.60;;;36.30;33.40;;;;;;6161587;28;20059;-84
2022/06/12 14:05:51;;;;;;;1.75;0.60;;;36.40;33.30;;;;;;6152216;28;20043;-84
2022/06/12 14:08:58;;;;;;;1.35;0.68;;;36.60;33.70;;;;;;6154311;28;20407;-84
2022/06/12 14:12:01;;;;;;;1.25;0.30;;;36.90;33.80;;;;;;6151528;28;20097;-85
2022/06/12 14:15:31;;;;;;;0.82;0.30;;;37.00;33.40;;;;;;6151847;28;20075;-84
2022/06/12 14:18:33;;;;;;;2.95;0.50;;;37.10;32.60;;;;;;6151205;28;20051;-85
2022/06/12 14:21:37;;;;;;;2.33;0.32;;;37.10;32.50;;;;;;6150837;28;20051;-85
2022/06/12 14:24:42;;;;;;;5.97;0.80;;;36.80;32.20;;;;;;6150340;28;20063;-85
2022/06/12 14:27:57;;;;;;;1.33;0.60;;;36.40;33.40;;;;;;6170173;28;20605;-86
2022/06/12 14:31:07;;;;;;;4.60;0.47;;;36.30;34.10;;;;;;6175023;28;20051;-85
2022/06/12 14:34:22;;;;;;;4.45;0.43;;;36.50;34.40;;;;;;6174829;28;20046;-85
2022/06/12 14:37:27;;;;;;;2.53;0.40;;;36.80;34.10;;;;;;6177333;28;20148;-85
2022/06/12 14:40:37;;;;;;;9.85;0.50;;;37.00;34.10;;;;;;6178242;28;20042;-86
2022/06/12 14:43:39;;;;;;;1.92;0.50;;;37.40;33.30;;;;;;6178252;28;20061;-86
2022/06/12 14:46:42;;;;;;;2.10;0.43;;;37.60;33.70;;;;;;6178791;28;20062;-86
2022/06/12 14:49:44;;;;;;;2.80;0.60;;;37.70;33.30;;;;;;6177568;28;20042;-86
2022/06/12 14:52:47;;;;;;;1.45;0.70;;;37.90;33.10;;;;;;6177722;28;20762;-86
2022/06/12 14:55:50;;;;;;;0.65;0.22;;;37.70;33.10;;;;;;6178162;28;20173;-85
2022/06/12 14:58:52;;;;;;;3.60;0.50;;;37.50;33.30;;;;;;6177556;28;20050;-86
2022/06/12 15:01:56;;;;;;;2.10;0.77;;;37.50;33.50;;;;;;6177553;28;20429;-85
2022/06/12 15:04:59;;;;;;;1.05;0.52;;;37.50;33.50;;;;;;6172327;28;20051;-86
2022/06/12 15:08:04;;;;;;;2.90;0.40;;;37.40;32.90;;;;;;6177805;28;20047;-85
2022/06/12 15:11:15;;;;;;;3.85;0.50;;;37.10;33.50;;;;;;6179180;28;20054;-85
2022/06/12 15:14:18;;;;;;;3.65;0.70;;;36.80;33.60;;;;;;6179153;28;20518;-85
2022/06/12 15:17:21;;;;;;;1.05;0.35;;;36.70;33.40;;;;;;6178906;28;20445;-84
2022/06/12 15:20:23;;;;;;;0.90;0.25;;;36.70;33.80;;;;;;6179285;28;20043;-85
2022/06/12 15:23:25;;;;;;;3.10;1.20;;;36.70;33.70;;;;;;6181784;28;20061;-85
2022/06/12 15:29:55;;;;;;;2.30;0.45;;;36.80;33.40;;;;;;6181669;28;20051;-85
2022/06/12 15:33:00;;;;;;;3.63;0.60;;;36.80;33.20;;;;;;6182690;28;20043;-85
2022/06/12 15:36:01;;;;;;;1.27;0.40;;;36.90;33.40;;;;;;6183775;28;20106;-85
2022/06/12 15:39:03;;;;;;;2.20;0.52;;;36.80;33.20;;;;;;6178146;28;20498;-85
2022/06/12 15:42:06;;;;;;;0.30;0.10;;;36.80;32.40;;;;;;6177195;28;20051;-85
2022/06/12 15:45:12;;;;;;;0.93;0.20;;;36.70;31.80;;;;;;6177550;28;20485;-85
2022/06/12 15:48:15;;;;;;;2.60;0.30;;;36.60;32.00;;;;;;6177444;28;20050;-86
2022/06/12 15:51:20;;;;;;;1.05;0.40;;;36.50;32.30;;;;;;6178429;28;20051;-86
2022/06/12 15:54:24;;;;;;;1.83;0.40;;;36.40;32.40;;;;;;6180520;28;20057;-85
2022/06/12 15:57:25;;;;;;;2.47;0.20;;;36.20;32.60;;;;;;6180617;28;20054;-85
2022/06/12 16:00:27;;;;;;;1.10;0.50;;;36.10;32.80;;;;;;6179934;28;20039;-83
2022/06/12 16:03:31;;;;;;;3.10;0.40;;;36.10;32.90;;;;;;6179505;28;20061;-82
2022/06/12 16:06:33;;;;;;;1.65;0.35;;;36.10;32.80;;;;;;6172877;28;20051;-83
2022/06/12 16:09:34;;;;;;;1.17;0.43;;;36.20;32.60;;;;;;6178056;28;20422;-82
2022/06/12 16:12:38;;;;;;;2.20;0.50;;;36.20;32.60;;;;;;6177701;28;20046;-82
2022/06/12 16:15:40;;;;;;;1.40;0.38;;;36.20;32.20;;;;;;6178348;28;20057;-82
2022/06/12 16:18:43;;;;;;;0.73;0.35;;;36.10;31.20;;;;;;6177491;28;20540;-82
2022/06/12 16:21:45;;;;;;;29.60;9.70;;;36.10;31.60;;;;;;6177520;28;20061;-82
2022/06/12 16:24:46;;;;;;;9.07;2.20;;;35.90;33.90;;;;;;6177683;28;20054;-83
2022/06/12 16:27:48;;;;;;;107.18;36.92;;;35.70;34.60;;;;;;6177214;28;20066;-82
2022/06/12 16:30:53;;;;;;;94.55;28.45;;;35.50;35.10;;;;;;6177663;28;20046;-82
2022/06/12 16:33:56;;;;;;;150.88;35.47;;;35.30;35.70;;;;;;6178182;28;20129;-82
2022/06/12 16:36:59;;;;;;;13.18;3.03;;;35.00;36.20;;;;;;6178742;28;20054;-83
2022/06/12 16:40:01;;;;;;;1.40;0.50;;;34.80;36.10;;;;;;6177606;28;20173;-83
2022/06/12 16:43:03;;;;;;;4.47;0.80;;;34.70;36.20;;;;;;6177969;28;20348;-82
2022/06/12 16:46:05;;;;;;;1.42;0.50;;;34.60;36.50;;;;;;6178493;28;20058;-83
2022/06/12 16:49:08;;;;;;;0.95;0.50;;;34.60;37.00;;;;;;6176544;28;20065;-82
2022/06/12 16:52:13;;;;;;;4.53;1.00;;;34.50;37.30;;;;;;6177933;28;20046;-83
2022/06/12 16:55:16;;;;;;;1.35;0.60;;;34.60;37.60;;;;;;6177731;28;20059;-82
2022/06/12 16:58:18;;;;;;;0.60;0.40;;;34.60;37.80;;;;;;6168028;28;20050;-83
2022/06/12 17:01:19;;;;;;;1.00;0.47;;;34.70;37.60;;;;;;6152944;28;20070;-81
2022/06/12 17:04:23;;;;;;;2.53;0.82;;;34.80;37.60;;;;;;6160579;28;20047;-82
2022/06/12 17:07:28;;;;;;;2.67;0.55;;;34.90;37.50;;;;;;6171731;28;20500;-82
2022/06/12 17:10:34;;;;;;;1.95;0.60;;;35.00;37.20;;;;;;6176332;28;20363;-81
2022/06/12 17:13:36;;;;;;;1.07;0.40;;;34.90;36.80;;;;;;6176438;28;20054;-83
2022/06/12 17:16:37;;;;;;;5.88;0.70;;;34.70;36.90;;;;;;6176371;28;20115;-82
2022/06/12 17:23:01;;;;;;;2.13;0.77;;;34.20;37.60;;;;;;6176887;28;20063;-82
2022/06/12 17:26:08;;;;;;;1.50;0.73;;;34.00;38.20;;;;;;6200432;28;20060;-82
2022/06/12 17:29:11;;;;;;;2.10;0.80;;;33.80;38.30;;;;;;6167784;28;20058;-83
2022/06/12 17:32:13;;;;;;;3.30;0.70;;;33.50;39.00;;;;;;6170007;28;20074;-82
2022/06/12 17:35:16;;;;;;;3.90;1.05;;;33.10;39.20;;;;;;6177381;28;20430;-80
2022/06/12 17:38:18;;;;;;;1.63;0.50;;;32.80;39.70;;;;;;6176232;28;20422;-82
2022/06/12 17:41:20;;;;;;;2.47;0.60;;;32.50;39.90;;;;;;6177552;28;20117;-82
2022/06/12 17:44:23;;;;;;;11.13;0.73;;;32.10;40.30;;;;;;6169290;28;20130;-82
2022/06/12 17:47:25;;;;;;;0.82;0.73;;;31.90;40.80;;;;;;6178159;28;20058;-82
2022/06/12 17:50:28;;;;;;;2.25;0.70;;;31.60;40.90;;;;;;6176085;28;20146;-82
2022/06/12 17:53:30;;;;;;;1.40;0.55;;;31.50;41.10;;;;;;6177947;28;20043;-82